createdAt,value
2017-08-19T00:02:13.680Z,1.90
2017-08-19T00:04:39.949Z,2.07
2017-08-19T00:07:06.994Z,2.13
2017-08-19T00:09:33.286Z,2.10
2017-08-19T00:12:00.314Z,2.00
2017-08-19T00:14:27.334Z,1.93
2017-08-19T00:16:53.620Z,2.23
2017-08-19T00:19:19.911Z,2.10
2017-08-19T00:21:46.215Z,2.07
2017-08-19T00:24:12.520Z,3.27
2017-08-19T00:26:38.810Z,2.20
2017-08-19T00:29:06.086Z,2.37
2017-08-19T00:31:32.399Z,2.20
2017-08-19T00:33:58.691Z,2.27
2017-08-19T00:36:25.754Z,2.20
2017-08-19T00:38:52.078Z,2.13
2017-08-19T00:41:18.370Z,2.30
2017-08-19T00:43:44.674Z,2.50
2017-08-19T00:46:10.994Z,2.40
2017-08-19T00:48:37.278Z,2.33
2017-08-19T00:51:03.646Z,2.93
2017-08-19T00:53:29.961Z,2.33
2017-08-19T00:55:56.251Z,2.13
2017-08-19T00:58:22.567Z,2.60
2017-08-19T01:00:48.886Z,2.07
2017-08-19T01:03:15.194Z,2.60
2017-08-19T01:05:41.530Z,3.13
2017-08-19T01:08:07.855Z,2.40
2017-08-19T01:10:34.174Z,1.83
2017-08-19T01:13:00.482Z,2.83
2017-08-19T01:15:26.791Z,2.37
2017-08-19T01:17:53.075Z,2.00
2017-08-19T01:20:20.458Z,2.50
2017-08-19T01:22:46.786Z,2.83
2017-08-19T01:25:25.394Z,2.63
2017-08-19T01:27:51.702Z,2.43
2017-08-19T01:30:17.967Z,2.23
2017-08-19T01:32:44.268Z,2.50
2017-08-19T01:35:10.558Z,2.80
2017-08-19T01:37:36.830Z,2.00
2017-08-19T01:40:03.108Z,2.83
2017-08-19T01:42:29.398Z,2.57
2017-08-19T01:44:55.654Z,2.00
2017-08-19T01:47:21.962Z,2.93
2017-08-19T01:49:48.265Z,2.60
2017-08-19T01:52:14.566Z,2.20
2017-08-19T01:54:40.818Z,2.63
2017-08-19T01:57:07.152Z,2.33
2017-08-19T01:59:33.422Z,1.80
2017-08-19T02:01:59.691Z,3.17
2017-08-19T02:04:26.746Z,2.57
2017-08-19T02:06:53.756Z,2.20
2017-08-19T02:09:20.029Z,2.27
2017-08-19T02:11:46.334Z,2.50
2017-08-19T02:14:12.591Z,2.07
2017-08-19T02:16:38.856Z,2.20
2017-08-19T02:19:05.153Z,3.40
2017-08-19T02:21:32.160Z,2.57
2017-08-19T02:23:58.430Z,2.70
2017-08-19T02:26:25.798Z,2.63
2017-08-19T02:28:52.070Z,2.17
2017-08-19T02:31:18.366Z,2.37
2017-08-19T02:33:44.658Z,2.37
2017-08-19T02:36:10.928Z,2.80
2017-08-19T02:38:37.221Z,2.20
2017-08-19T02:41:03.522Z,1.80
2017-08-19T02:43:29.848Z,2.00
2017-08-19T02:45:56.150Z,3.03
2017-08-19T02:48:22.446Z,2.53
2017-08-19T02:50:48.718Z,2.30
2017-08-19T02:53:14.986Z,2.20
2017-08-19T02:55:41.278Z,2.63
2017-08-19T02:58:07.566Z,2.60
2017-08-19T03:00:33.844Z,2.70
2017-08-19T03:03:00.160Z,2.63
2017-08-19T03:05:26.414Z,2.40
2017-08-19T03:07:52.690Z,2.80
2017-08-19T03:10:18.999Z,2.93
2017-08-19T03:12:45.254Z,2.20
2017-08-19T03:15:11.524Z,2.63
2017-08-19T03:17:37.850Z,3.00
2017-08-19T03:20:04.122Z,3.53
2017-08-19T03:22:30.378Z,2.67
2017-08-19T03:24:56.691Z,2.70
2017-08-19T03:27:22.962Z,3.00
2017-08-19T03:29:49.244Z,2.33
2017-08-19T03:32:15.555Z,2.80
2017-08-19T03:34:41.822Z,2.70
2017-08-19T03:37:08.093Z,2.50
2017-08-19T03:39:34.775Z,2.43
2017-08-19T03:42:01.062Z,3.10
2017-08-19T03:44:27.331Z,3.10
2017-08-19T03:46:53.602Z,2.93
2017-08-19T03:49:19.874Z,2.67
2017-08-19T03:51:46.150Z,2.60
2017-08-19T03:54:12.426Z,2.83
2017-08-19T03:56:38.714Z,2.13
2017-08-19T03:59:04.983Z,2.33
2017-08-19T04:01:31.314Z,2.50
2017-08-19T04:03:57.608Z,2.70
2017-08-19T04:06:23.885Z,2.67
2017-08-19T04:08:50.202Z,2.30
2017-08-19T04:11:16.466Z,2.80
2017-08-19T04:13:42.730Z,2.23
2017-08-19T04:16:09.051Z,2.43
2017-08-19T04:18:35.302Z,2.37
2017-08-19T04:21:01.590Z,3.10
2017-08-19T04:23:27.878Z,2.70
2017-08-19T04:25:54.163Z,2.57
2017-08-19T04:28:20.438Z,2.60
2017-08-19T04:30:46.734Z,2.53
2017-08-19T04:33:13.034Z,2.50
2017-08-19T04:35:39.302Z,2.20
2017-08-19T04:38:05.630Z,2.30
2017-08-19T04:40:31.920Z,2.50
2017-08-19T04:42:58.229Z,2.93
2017-08-19T04:45:24.526Z,2.23
2017-08-19T04:47:51.559Z,2.60
2017-08-19T04:50:18.595Z,2.07
2017-08-19T04:52:44.870Z,2.90
2017-08-19T04:55:11.150Z,2.53
2017-08-19T04:57:37.434Z,2.60
2017-08-19T05:00:03.750Z,3.13
2017-08-19T05:02:30.027Z,2.33
2017-08-19T05:04:56.293Z,2.57
2017-08-19T05:07:22.586Z,1.90
2017-08-19T05:09:49.180Z,1.87
2017-08-19T05:12:15.633Z,1.80
2017-08-19T05:14:41.936Z,2.23
2017-08-19T05:17:08.195Z,1.60
2017-08-19T05:19:34.465Z,1.50
2017-08-19T05:22:00.757Z,1.90
2017-08-19T05:24:27.034Z,2.23
2017-08-19T05:26:53.306Z,1.93
2017-08-19T05:29:19.966Z,1.83
2017-08-19T05:31:47.046Z,2.23
2017-08-19T05:34:13.306Z,1.63
2017-08-19T05:36:39.646Z,1.70
2017-08-19T05:39:06.994Z,2.40
2017-08-19T05:41:33.274Z,1.73
2017-08-19T05:43:59.577Z,1.60
2017-08-19T05:46:25.870Z,2.60
2017-08-19T05:48:52.886Z,2.50
2017-08-19T05:51:19.913Z,1.83
2017-08-19T05:53:46.194Z,1.77
2017-08-19T05:56:12.454Z,2.33
2017-08-19T05:58:38.734Z,1.30
2017-08-19T06:01:05.047Z,1.80
2017-08-19T06:03:31.326Z,1.70
2017-08-19T06:05:57.638Z,1.73
2017-08-19T06:08:23.915Z,1.73
2017-08-19T06:10:50.182Z,2.37
2017-08-19T06:13:16.476Z,1.70
2017-08-19T06:15:42.742Z,2.90
2017-08-19T06:18:09.023Z,1.70
2017-08-19T06:20:35.374Z,1.87
2017-08-19T06:23:01.633Z,1.73
2017-08-19T06:25:27.931Z,1.27
2017-08-19T06:27:54.223Z,1.10
2017-08-19T06:30:20.518Z,1.30
2017-08-19T06:32:46.811Z,1.13
2017-08-19T06:35:13.115Z,1.57
2017-08-19T06:37:39.390Z,1.70
2017-08-19T06:40:05.683Z,1.50
2017-08-19T06:42:31.954Z,2.07
2017-08-19T06:44:59.238Z,1.23
2017-08-19T06:47:26.566Z,1.50
2017-08-19T06:49:52.859Z,1.23
2017-08-19T06:52:19.154Z,1.17
2017-08-19T06:54:45.414Z,1.47
2017-08-19T06:57:11.741Z,1.70
2017-08-19T06:59:38.003Z,1.30
2017-08-19T07:02:04.300Z,1.30
2017-08-19T07:04:30.613Z,1.30
2017-08-19T07:06:57.648Z,1.13
2017-08-19T07:09:23.985Z,0.80
2017-08-19T07:11:50.318Z,1.00
2017-08-19T07:14:17.695Z,1.00
2017-08-19T07:16:43.994Z,0.70
2017-08-19T07:19:10.266Z,1.40
2017-08-19T07:21:36.517Z,1.13
2017-08-19T07:24:02.794Z,1.30
2017-08-19T07:26:29.067Z,1.03
2017-08-19T07:28:55.386Z,1.80
2017-08-19T07:31:21.642Z,1.20
2017-08-19T07:33:47.946Z,1.20
2017-08-19T07:36:14.206Z,1.30
2017-08-19T07:38:40.522Z,1.60
2017-08-19T07:41:07.554Z,1.00
2017-08-19T07:43:33.807Z,1.37
2017-08-19T07:46:00.082Z,1.10
2017-08-19T07:48:27.130Z,1.17
2017-08-19T07:50:53.402Z,1.00
2017-08-19T07:53:19.659Z,1.20
2017-08-19T07:55:45.971Z,1.30
2017-08-19T07:58:12.970Z,0.93
2017-08-19T08:00:39.243Z,1.23
2017-08-19T08:03:05.544Z,1.30
2017-08-19T08:05:31.907Z,1.63
2017-08-19T08:07:58.181Z,1.10
2017-08-19T08:10:24.450Z,1.33
2017-08-19T08:12:50.718Z,1.40
2017-08-19T08:15:17.006Z,1.10
2017-08-19T08:17:43.307Z,1.40
2017-08-19T08:20:09.575Z,1.03
2017-08-19T08:22:35.874Z,1.20
2017-08-19T08:25:02.175Z,0.90
2017-08-19T08:27:28.491Z,1.20
2017-08-19T08:29:54.775Z,0.80
2017-08-19T08:32:21.091Z,1.47
2017-08-19T08:34:47.374Z,1.07
2017-08-19T08:37:13.656Z,1.30
2017-08-19T08:39:41.039Z,1.10
2017-08-19T08:42:07.293Z,1.27
2017-08-19T08:44:33.569Z,0.93
2017-08-19T08:46:59.858Z,0.83
2017-08-19T08:49:26.150Z,1.23
2017-08-19T08:51:52.434Z,1.20
2017-08-19T08:54:18.727Z,1.10
2017-08-19T08:56:45.006Z,0.93
2017-08-19T08:59:11.289Z,1.03
2017-08-19T09:01:37.587Z,1.27
2017-08-19T09:04:03.838Z,1.00
2017-08-19T09:06:30.146Z,1.07
2017-08-19T09:08:56.429Z,1.27
2017-08-19T09:11:22.722Z,1.30
2017-08-19T09:13:49.003Z,0.70
2017-08-19T09:16:15.323Z,0.90
2017-08-19T09:18:41.604Z,0.93
2017-08-19T09:21:07.866Z,1.17
2017-08-19T09:23:34.186Z,0.90
2017-08-19T09:26:00.434Z,0.90
2017-08-19T09:28:26.685Z,1.00
2017-08-19T09:30:52.978Z,1.20
2017-08-19T09:33:19.238Z,0.60
2017-08-19T09:35:45.510Z,0.90
2017-08-19T09:38:11.795Z,1.70
2017-08-19T09:40:38.048Z,0.80
2017-08-19T09:43:04.352Z,1.07
2017-08-19T09:45:30.631Z,0.83
2017-08-19T09:47:57.666Z,1.07
2017-08-19T09:50:24.695Z,0.60
2017-08-19T09:52:50.978Z,1.00
2017-08-19T09:55:27.342Z,1.10
2017-08-19T09:57:55.462Z,0.70
2017-08-19T10:00:21.748Z,0.93
2017-08-19T10:02:48.758Z,0.80
2017-08-19T10:05:15.794Z,0.80
2017-08-19T10:07:42.800Z,0.80
2017-08-19T10:10:21.431Z,1.07
2017-08-19T10:12:47.746Z,0.77
2017-08-19T10:15:14.758Z,1.40
2017-08-19T10:17:41.032Z,1.07
2017-08-19T10:20:07.312Z,0.80
2017-08-19T10:22:33.631Z,0.43
2017-08-19T10:24:59.910Z,1.40
2017-08-19T10:27:27.029Z,0.50
2017-08-19T10:29:53.290Z,0.73
2017-08-19T10:32:19.558Z,1.20
2017-08-19T10:34:45.864Z,0.70
2017-08-19T10:37:12.110Z,0.50
2017-08-19T10:39:39.318Z,0.67
2017-08-19T10:42:05.618Z,0.73
2017-08-19T10:44:31.906Z,0.93
2017-08-19T10:46:58.190Z,0.80
2017-08-19T10:49:24.482Z,0.60
2017-08-19T10:51:50.770Z,0.67
2017-08-19T10:54:17.037Z,0.60
2017-08-19T10:56:43.367Z,0.60
2017-08-19T10:59:09.638Z,0.50
2017-08-19T11:01:35.915Z,1.10
2017-08-19T11:04:02.214Z,0.77
2017-08-19T11:06:28.482Z,0.80
2017-08-19T11:08:54.786Z,0.97
2017-08-19T11:11:21.064Z,0.60
2017-08-19T11:13:47.314Z,1.10
2017-08-19T11:16:13.602Z,0.67
2017-08-19T11:18:39.910Z,0.60
2017-08-19T11:21:06.182Z,0.73
2017-08-19T11:26:21.990Z,1.10
2017-08-19T11:28:48.266Z,1.03
2017-08-19T11:31:14.547Z,0.97
2017-08-19T11:33:40.825Z,0.60
2017-08-19T11:36:07.109Z,0.60
2017-08-19T11:38:33.403Z,0.90
2017-08-19T11:40:59.683Z,0.50
2017-08-19T11:43:25.966Z,0.90
2017-08-19T11:45:52.234Z,1.13
2017-08-19T11:48:18.534Z,0.73
2017-08-19T11:50:44.794Z,0.80
2017-08-19T11:53:11.818Z,1.10
2017-08-19T11:55:38.822Z,1.27
2017-08-19T11:58:05.122Z,0.80
2017-08-19T12:00:31.386Z,0.77
2017-08-19T12:02:57.635Z,0.80
2017-08-19T12:05:23.942Z,0.67
2017-08-19T12:07:50.206Z,0.70
2017-08-19T12:10:16.462Z,0.77
2017-08-19T12:12:42.765Z,0.77
2017-08-19T12:15:09.792Z,1.17
2017-08-19T12:17:36.833Z,1.30
2017-08-19T12:20:04.187Z,0.70
2017-08-19T12:22:30.461Z,0.87
2017-08-19T12:24:56.726Z,1.97
2017-08-19T12:27:23.026Z,1.23
2017-08-19T12:29:49.319Z,1.10
2017-08-19T12:32:16.330Z,1.10
2017-08-19T12:34:43.331Z,0.50
2017-08-19T12:37:09.624Z,0.90
2017-08-19T12:39:35.894Z,0.43
2017-08-19T12:42:02.166Z,1.30
2017-08-19T12:44:28.432Z,0.80
2017-08-19T12:46:55.430Z,0.73
2017-08-19T12:49:22.470Z,0.90
2017-08-19T12:51:48.710Z,0.73
2017-08-19T12:54:15.006Z,0.90
2017-08-19T12:56:42.038Z,1.10
2017-08-19T12:59:08.326Z,1.20
2017-08-19T13:01:34.595Z,0.80
2017-08-19T13:04:00.927Z,0.77
2017-08-19T13:06:27.211Z,1.20
2017-08-19T13:08:53.470Z,0.47
2017-08-19T13:11:19.770Z,1.20
2017-08-19T13:13:46.063Z,0.93
2017-08-19T13:16:12.310Z,0.87
2017-08-19T13:18:38.642Z,0.87
2017-08-19T13:21:04.903Z,1.87
2017-08-19T13:23:31.177Z,0.80
2017-08-19T13:25:58.235Z,0.70
2017-08-19T13:28:24.482Z,1.40
2017-08-19T13:30:50.765Z,1.57
2017-08-19T13:33:17.080Z,1.13
2017-08-19T13:35:43.358Z,0.80
2017-08-19T13:38:09.643Z,0.63
2017-08-19T13:40:35.946Z,0.57
2017-08-19T13:43:02.226Z,0.70
2017-08-19T13:45:29.246Z,0.80
2017-08-19T13:47:55.522Z,0.90
2017-08-19T13:50:21.814Z,0.80
2017-08-19T13:52:48.086Z,1.03
2017-08-19T13:55:15.519Z,1.00
2017-08-19T13:57:41.830Z,1.00
2017-08-19T14:00:08.114Z,1.50
2017-08-19T14:02:34.419Z,0.90
2017-08-19T14:05:00.700Z,0.90
2017-08-19T14:07:28.857Z,1.00
2017-08-19T14:09:55.187Z,0.83
2017-08-19T14:12:21.489Z,0.40
2017-08-19T14:14:47.768Z,0.73
2017-08-19T14:17:14.094Z,0.70
2017-08-19T14:19:40.375Z,0.50
2017-08-19T14:22:06.642Z,0.53
2017-08-19T14:24:32.957Z,1.00
2017-08-19T14:26:59.254Z,0.87
2017-08-19T14:29:26.279Z,0.70
2017-08-19T14:31:52.594Z,0.90
2017-08-19T14:34:18.959Z,0.90
2017-08-19T14:36:45.245Z,0.77
2017-08-19T14:39:11.514Z,0.60
2017-08-19T14:41:37.776Z,1.20
2017-08-19T14:44:04.054Z,0.77
2017-08-19T14:46:30.351Z,1.30
2017-08-19T14:48:56.616Z,0.60
2017-08-19T14:51:30.395Z,1.23
2017-08-19T14:53:56.694Z,0.80
2017-08-19T14:56:25.190Z,0.70
2017-08-19T14:58:51.472Z,0.90
2017-08-19T15:01:17.742Z,0.87
2017-08-19T15:03:44.014Z,0.70
2017-08-19T15:06:10.286Z,1.37
2017-08-19T15:08:36.590Z,0.97
2017-08-19T15:11:02.886Z,1.40
2017-08-19T15:13:29.166Z,1.00
2017-08-19T15:15:56.518Z,1.33
2017-08-19T15:18:23.565Z,0.90
2017-08-19T15:20:50.584Z,0.80
2017-08-19T15:23:16.870Z,0.83
2017-08-19T15:25:43.150Z,1.03
2017-08-19T15:28:09.418Z,0.70
2017-08-19T15:30:35.711Z,0.87
2017-08-19T15:33:02.003Z,1.00
2017-08-19T15:35:28.278Z,1.63
2017-08-19T15:37:54.625Z,1.23
2017-08-19T15:40:20.886Z,1.00
2017-08-19T15:42:47.142Z,0.70
2017-08-19T15:45:13.460Z,1.00
2017-08-19T15:47:39.747Z,1.50
2017-08-19T15:50:06.023Z,1.00
2017-08-19T15:52:33.103Z,0.90
2017-08-19T15:54:59.366Z,0.80
2017-08-19T15:57:25.655Z,0.80
2017-08-19T15:59:51.946Z,0.83
2017-08-19T16:02:18.249Z,1.33
2017-08-19T16:04:44.546Z,1.00
2017-08-19T16:07:10.839Z,1.00
2017-08-19T16:09:37.115Z,1.00
2017-08-19T16:12:03.403Z,1.40
2017-08-19T16:14:29.716Z,1.07
2017-08-19T16:16:56.058Z,1.20
2017-08-19T16:19:22.349Z,1.10
2017-08-19T16:21:49.811Z,0.77
2017-08-19T16:24:16.123Z,1.13
2017-08-19T16:26:42.420Z,0.93
2017-08-19T16:29:08.713Z,2.60
2017-08-19T16:31:34.988Z,1.83
2017-08-19T16:34:01.294Z,2.87
2017-08-19T16:36:27.582Z,0.90
2017-08-19T16:38:53.823Z,1.27
2017-08-19T16:41:21.119Z,1.40
2017-08-19T16:43:48.174Z,3.00
2017-08-19T16:46:14.451Z,4.40
2017-08-19T16:48:40.719Z,3.70
2017-08-19T16:51:07.003Z,1.60
2017-08-19T16:53:33.347Z,1.57
2017-08-19T16:55:59.593Z,1.73
2017-08-19T16:58:26.646Z,2.30
2017-08-19T17:00:53.650Z,1.50
2017-08-19T17:03:19.956Z,1.67
2017-08-19T17:05:46.325Z,1.20
2017-08-19T17:08:12.585Z,0.80
2017-08-19T17:10:38.850Z,1.03
2017-08-19T17:13:05.175Z,1.10
2017-08-19T17:15:31.470Z,1.47
2017-08-19T17:17:58.478Z,3.20
2017-08-19T17:20:24.813Z,1.00
2017-08-19T17:22:52.906Z,1.50
2017-08-19T17:25:19.191Z,2.00
2017-08-19T17:27:45.499Z,3.20
2017-08-19T17:30:11.795Z,1.83
2017-08-19T17:32:38.834Z,1.90
2017-08-19T17:35:05.126Z,1.20
2017-08-19T17:37:31.399Z,1.37
2017-08-19T17:39:57.694Z,1.40
2017-08-19T17:42:23.989Z,1.10
2017-08-19T17:44:50.994Z,0.97
2017-08-19T17:47:17.283Z,1.60
2017-08-19T17:49:43.590Z,1.57
2017-08-19T17:52:09.874Z,1.00
2017-08-19T17:54:36.142Z,1.07
2017-08-19T17:57:02.471Z,1.20
2017-08-19T17:59:28.742Z,1.10
2017-08-19T18:01:55.030Z,1.20
2017-08-19T18:04:21.493Z,1.17
2017-08-19T18:06:48.112Z,1.47
2017-08-19T18:09:14.491Z,1.43
2017-08-19T18:11:42.100Z,1.90
2017-08-19T18:14:08.395Z,1.73
2017-08-19T18:16:34.987Z,1.70
2017-08-19T18:19:01.632Z,1.30
2017-08-19T18:21:28.007Z,2.30
2017-08-19T18:23:54.266Z,2.43
2017-08-19T18:26:20.558Z,2.00
2017-08-19T18:28:46.843Z,1.70
2017-08-19T18:31:14.250Z,1.07
2017-08-19T18:33:41.623Z,1.43
2017-08-19T18:36:07.915Z,0.80
2017-08-19T18:38:34.178Z,1.03
2017-08-19T18:41:00.460Z,1.03
2017-08-19T18:43:26.778Z,1.00
2017-08-19T18:45:53.443Z,1.20
2017-08-19T18:48:20.602Z,0.83
2017-08-19T18:50:46.976Z,1.17
2017-08-19T18:53:13.371Z,1.50
2017-08-19T18:55:41.204Z,1.73
2017-08-19T18:58:07.664Z,1.67
2017-08-19T19:00:34.136Z,1.80
2017-08-19T19:03:01.715Z,1.20
2017-08-19T19:05:28.148Z,1.60
2017-08-19T19:07:54.571Z,1.87
2017-08-19T19:10:21.778Z,1.30
2017-08-19T19:12:48.222Z,1.43
2017-08-19T19:15:24.780Z,1.47
2017-08-19T19:17:51.256Z,1.50
2017-08-19T19:20:17.972Z,1.40
2017-08-19T19:22:44.421Z,1.93
2017-08-19T19:25:12.127Z,2.23
2017-08-19T19:27:38.780Z,1.63
2017-08-19T19:30:05.313Z,1.20
2017-08-19T19:32:33.952Z,2.00
2017-08-19T19:35:00.883Z,1.90
2017-08-19T19:37:28.544Z,1.80
2017-08-19T19:39:56.398Z,2.00
2017-08-19T19:42:23.853Z,1.67
2017-08-19T19:44:50.411Z,1.50
2017-08-19T19:47:17.305Z,1.70
2017-08-19T19:49:44.431Z,1.83
2017-08-19T19:52:11.458Z,1.60
2017-08-19T19:54:38.598Z,2.00
2017-08-19T19:57:05.652Z,1.70
2017-08-19T19:59:33.320Z,2.30
2017-08-19T20:02:00.881Z,1.70
2017-08-19T20:04:28.538Z,2.87
2017-08-19T20:06:55.655Z,2.17
2017-08-19T20:09:23.079Z,2.63
2017-08-19T20:11:50.218Z,2.70
2017-08-19T20:14:16.991Z,2.37
2017-08-19T20:16:43.669Z,2.90
2017-08-19T20:19:10.129Z,3.03
2017-08-19T20:21:36.933Z,3.30
2017-08-19T20:24:03.669Z,3.80
2017-08-19T20:26:30.347Z,3.17
2017-08-19T20:28:57.093Z,2.07
2017-08-19T20:31:23.720Z,3.30
2017-08-19T20:33:50.228Z,2.70
2017-08-19T20:36:16.679Z,2.60
2017-08-19T20:38:43.157Z,2.67
2017-08-19T20:41:09.624Z,2.60
2017-08-19T20:43:36.215Z,2.90
2017-08-19T20:46:02.755Z,2.10
2017-08-19T20:48:29.310Z,1.90
2017-08-19T20:50:56.127Z,2.50
2017-08-19T20:53:22.560Z,2.40
2017-08-19T20:55:48.958Z,2.50
2017-08-19T20:58:15.362Z,2.60
2017-08-19T21:00:42.697Z,2.97
2017-08-19T21:03:09.144Z,2.90
2017-08-19T21:05:36.284Z,2.87
2017-08-19T21:08:02.743Z,2.83
2017-08-19T21:10:29.176Z,3.30
2017-08-19T21:12:55.604Z,2.60
2017-08-19T21:15:22.036Z,2.47
2017-08-19T21:17:48.443Z,2.53
2017-08-19T21:20:14.820Z,4.30
2017-08-19T21:22:41.248Z,2.90
2017-08-19T21:25:07.648Z,2.17
2017-08-19T21:27:34.086Z,1.90
2017-08-19T21:30:00.459Z,2.40
2017-08-19T21:32:26.831Z,2.20
2017-08-19T21:34:53.246Z,2.03
2017-08-19T21:37:19.663Z,2.20
2017-08-19T21:39:46.074Z,2.27
2017-08-19T21:42:12.459Z,2.73
2017-08-19T21:44:38.828Z,2.53
2017-08-19T21:47:05.215Z,2.13
2017-08-19T21:49:31.605Z,2.50
2017-08-19T21:51:58.015Z,2.10
2017-08-19T21:54:25.195Z,1.73
2017-08-19T21:56:51.543Z,1.70
2017-08-19T21:59:17.911Z,1.63
2017-08-19T22:01:44.275Z,1.60
2017-08-19T22:04:10.885Z,1.30
2017-08-19T22:06:37.315Z,2.03
2017-08-19T22:09:04.051Z,1.23
2017-08-19T22:11:30.871Z,1.90
2017-08-19T22:13:57.251Z,2.03
2017-08-19T22:16:25.747Z,1.70
2017-08-19T22:18:52.191Z,2.13
2017-08-19T22:21:18.591Z,2.13
2017-08-19T22:23:44.976Z,2.27
2017-08-19T22:26:11.348Z,1.27
2017-08-19T22:28:37.807Z,1.50
2017-08-19T22:31:04.143Z,1.87
2017-08-19T22:33:30.522Z,1.47
2017-08-19T22:35:57.092Z,1.30
2017-08-19T22:38:23.496Z,1.70
2017-08-19T22:40:49.899Z,1.50
2017-08-19T22:43:16.400Z,1.80
2017-08-19T22:45:42.828Z,1.60
2017-08-19T22:48:09.187Z,1.43
2017-08-19T22:50:35.655Z,2.50
2017-08-19T22:53:02.031Z,1.77
2017-08-19T22:55:29.127Z,1.90
2017-08-19T22:57:55.516Z,1.70
2017-08-19T23:00:21.895Z,1.60
2017-08-19T23:02:48.276Z,2.30
2017-08-19T23:05:14.680Z,1.77
2017-08-19T23:07:41.124Z,2.00
2017-08-19T23:10:07.499Z,1.70
2017-08-19T23:12:33.927Z,1.90
2017-08-19T23:15:00.278Z,2.17
2017-08-19T23:17:26.645Z,1.97
2017-08-19T23:19:53.112Z,1.60
2017-08-19T23:22:19.484Z,2.50
2017-08-19T23:24:45.871Z,1.90
2017-08-19T23:27:12.264Z,2.17
2017-08-19T23:29:38.647Z,2.00
2017-08-19T23:32:05.084Z,1.97
2017-08-19T23:34:31.475Z,2.13
2017-08-19T23:36:57.874Z,2.00
2017-08-19T23:39:24.223Z,2.43
2017-08-19T23:41:50.608Z,2.23
2017-08-19T23:44:16.980Z,1.90
2017-08-19T23:46:44.184Z,1.73
2017-08-19T23:49:10.604Z,1.50
2017-08-19T23:51:36.955Z,2.33
2017-08-19T23:54:03.336Z,1.80
2017-08-19T23:56:29.795Z,2.27
2017-08-19T23:58:56.163Z,1.63
